Terminal Aerodrome Forecast
Issued by NWS

Home | Current Version | Previous Version | Text Only | Print | Product List | Glossary Off
Versions: 1 2 3 4 5 6 7 8 9 10 11 12 13 14 15 16 17 18 19 20 21 22 23 24 25

000
FTUS43 KDDC 070537
TAFHYS
TAF
KHYS 070537Z 0706/0806 28010KT P6SM FEW250
     FM071600 31015KT P6SM SCT200
     FM071800 31026G35KT P6SM SCT200
     FM080000 32017KT P6SM SKC=

USA.gov is the U.S. government's official web portal to all federal, state and local government web resources and services.